sensor_id;sensor_type;location;lat;lon;timestamp;P1;durP1;ratioP1;P2;durP2;ratioP2
75823;SDS011;64457;51.976;9.834;2023-07-13T00:00:50;8.93;;;3.50;;
75823;SDS011;64457;51.976;9.834;2023-07-13T00:03:21;8.20;;;3.60;;
75823;SDS011;64457;51.976;9.834;2023-07-13T00:05:57;8.70;;;3.67;;
75823;SDS011;64457;51.976;9.834;2023-07-13T00:08:29;10.37;;;3.87;;
75823;SDS011;64457;51.976;9.834;2023-07-13T00:10:59;7.87;;;3.63;;
75823;SDS011;64457;51.976;9.834;2023-07-13T00:13:31;9.03;;;3.70;;
75823;SDS011;64457;51.976;9.834;2023-07-13T00:15:58;11.70;;;4.03;;
75823;SDS011;64457;51.976;9.834;2023-07-13T00:18:26;9.73;;;3.37;;
75823;SDS011;64457;51.976;9.834;2023-07-13T00:20:55;7.37;;;3.40;;
75823;SDS011;64457;51.976;9.834;2023-07-13T00:23:30;13.67;;;3.40;;
75823;SDS011;64457;51.976;9.834;2023-07-13T00:25:59;8.73;;;3.33;;
75823;SDS011;64457;51.976;9.834;2023-07-13T00:28:30;12.37;;;3.73;;
75823;SDS011;64457;51.976;9.834;2023-07-13T00:30:59;8.07;;;3.77;;
75823;SDS011;64457;51.976;9.834;2023-07-13T00:33:26;12.87;;;3.90;;
75823;SDS011;64457;51.976;9.834;2023-07-13T00:35:55;8.43;;;3.37;;
75823;SDS011;64457;51.976;9.834;2023-07-13T00:38:23;7.17;;;3.57;;
75823;SDS011;64457;51.976;9.834;2023-07-13T00:40:52;10.70;;;4.07;;
75823;SDS011;64457;51.976;9.834;2023-07-13T00:43:21;9.10;;;4.40;;
75823;SDS011;64457;51.976;9.834;2023-07-13T00:48:50;12.57;;;4.40;;
75823;SDS011;64457;51.976;9.834;2023-07-13T00:51:21;9.20;;;3.90;;
75823;SDS011;64457;51.976;9.834;2023-07-13T00:53:59;10.60;;;3.70;;
75823;SDS011;64457;51.976;9.834;2023-07-13T00:56:31;10.90;;;3.53;;
75823;SDS011;64457;51.976;9.834;2023-07-13T00:59:01;11.00;;;3.40;;
75823;SDS011;64457;51.976;9.834;2023-07-13T01:01:34;13.17;;;4.67;;
75823;SDS011;64457;51.976;9.834;2023-07-13T01:04:02;16.13;;;4.37;;
75823;SDS011;64457;51.976;9.834;2023-07-13T01:06:33;12.00;;;4.30;;
75823;SDS011;64457;51.976;9.834;2023-07-13T01:09:02;10.27;;;4.40;;
75823;SDS011;64457;51.976;9.834;2023-07-13T01:11:32;9.67;;;4.83;;
75823;SDS011;64457;51.976;9.834;2023-07-13T01:14:00;11.90;;;4.83;;
75823;SDS011;64457;51.976;9.834;2023-07-13T01:16:29;13.47;;;3.93;;
75823;SDS011;64457;51.976;9.834;2023-07-13T01:19:03;8.70;;;3.60;;
75823;SDS011;64457;51.976;9.834;2023-07-13T01:21:52;8.63;;;3.90;;
75823;SDS011;64457;51.976;9.834;2023-07-13T01:24:20;9.30;;;3.83;;
75823;SDS011;64457;51.976;9.834;2023-07-13T01:26:47;16.50;;;5.17;;
75823;SDS011;64457;51.976;9.834;2023-07-13T01:29:15;9.57;;;3.70;;
75823;SDS011;64457;51.976;9.834;2023-07-13T01:31:43;9.37;;;4.07;;
75823;SDS011;64457;51.976;9.834;2023-07-13T01:34:11;9.90;;;3.63;;
75823;SDS011;64457;51.976;9.834;2023-07-13T01:36:39;14.63;;;3.53;;
75823;SDS011;64457;51.976;9.834;2023-07-13T01:39:08;12.23;;;4.30;;
75823;SDS011;64457;51.976;9.834;2023-07-13T01:41:36;18.10;;;3.60;;
75823;SDS011;64457;51.976;9.834;2023-07-13T01:44:04;10.57;;;3.77;;
75823;SDS011;64457;51.976;9.834;2023-07-13T01:46:32;11.63;;;4.20;;
75823;SDS011;64457;51.976;9.834;2023-07-13T01:48:59;9.63;;;3.70;;
75823;SDS011;64457;51.976;9.834;2023-07-13T01:51:28;12.97;;;4.20;;
75823;SDS011;64457;51.976;9.834;2023-07-13T01:53:56;9.63;;;3.90;;
75823;SDS011;64457;51.976;9.834;2023-07-13T01:56:25;11.03;;;3.83;;
75823;SDS011;64457;51.976;9.834;2023-07-13T01:58:53;11.53;;;3.73;;
75823;SDS011;64457;51.976;9.834;2023-07-13T02:01:21;8.47;;;3.60;;
75823;SDS011;64457;51.976;9.834;2023-07-13T02:03:49;10.53;;;4.20;;
75823;SDS011;64457;51.976;9.834;2023-07-13T02:06:16;9.77;;;4.00;;
75823;SDS011;64457;51.976;9.834;2023-07-13T02:08:44;13.00;;;4.77;;
75823;SDS011;64457;51.976;9.834;2023-07-13T02:11:13;11.00;;;4.80;;
75823;SDS011;64457;51.976;9.834;2023-07-13T02:13:42;10.73;;;4.40;;
75823;SDS011;64457;51.976;9.834;2023-07-13T02:16:10;14.00;;;4.70;;
75823;SDS011;64457;51.976;9.834;2023-07-13T02:18:37;10.40;;;4.93;;
75823;SDS011;64457;51.976;9.834;2023-07-13T02:21:05;9.33;;;4.17;;
75823;SDS011;64457;51.976;9.834;2023-07-13T02:23:33;12.17;;;5.33;;
75823;SDS011;64457;51.976;9.834;2023-07-13T02:26:01;10.63;;;4.43;;
75823;SDS011;64457;51.976;9.834;2023-07-13T02:28:30;12.93;;;4.67;;
75823;SDS011;64457;51.976;9.834;2023-07-13T02:31:05;12.00;;;4.53;;
75823;SDS011;64457;51.976;9.834;2023-07-13T02:33:35;8.73;;;4.50;;
75823;SDS011;64457;51.976;9.834;2023-07-13T02:36:03;9.50;;;3.93;;
75823;SDS011;64457;51.976;9.834;2023-07-13T02:38:31;10.60;;;4.03;;
75823;SDS011;64457;51.976;9.834;2023-07-13T02:41:00;9.10;;;3.90;;
75823;SDS011;64457;51.976;9.834;2023-07-13T02:43:28;12.60;;;4.10;;
75823;SDS011;64457;51.976;9.834;2023-07-13T02:45:55;9.20;;;4.37;;
75823;SDS011;64457;51.976;9.834;2023-07-13T02:48:27;11.80;;;4.40;;
75823;SDS011;64457;51.976;9.834;2023-07-13T02:50:55;9.50;;;4.10;;
75823;SDS011;64457;51.976;9.834;2023-07-13T02:53:23;10.30;;;4.27;;
75823;SDS011;64457;51.976;9.834;2023-07-13T02:55:50;9.90;;;5.10;;
75823;SDS011;64457;51.976;9.834;2023-07-13T02:58:19;14.20;;;4.90;;
75823;SDS011;64457;51.976;9.834;2023-07-13T03:00:48;10.50;;;4.60;;
75823;SDS011;64457;51.976;9.834;2023-07-13T03:03:16;12.63;;;5.00;;
75823;SDS011;64457;51.976;9.834;2023-07-13T03:05:46;10.97;;;4.80;;
75823;SDS011;64457;51.976;9.834;2023-07-13T03:08:16;13.43;;;4.70;;
75823;SDS011;64457;51.976;9.834;2023-07-13T03:10:44;9.13;;;4.33;;
75823;SDS011;64457;51.976;9.834;2023-07-13T03:13:12;13.53;;;4.53;;
75823;SDS011;64457;51.976;9.834;2023-07-13T03:15:39;15.03;;;4.50;;
75823;SDS011;64457;51.976;9.834;2023-07-13T03:18:07;9.30;;;4.00;;
75823;SDS011;64457;51.976;9.834;2023-07-13T03:20:35;10.40;;;4.50;;
75823;SDS011;64457;51.976;9.834;2023-07-13T03:23:04;12.00;;;5.43;;
75823;SDS011;64457;51.976;9.834;2023-07-13T03:25:31;14.60;;;4.63;;
75823;SDS011;64457;51.976;9.834;2023-07-13T03:27:59;14.10;;;4.80;;
75823;SDS011;64457;51.976;9.834;2023-07-13T03:30:27;9.63;;;5.10;;
75823;SDS011;64457;51.976;9.834;2023-07-13T03:32:54;10.20;;;4.20;;
75823;SDS011;64457;51.976;9.834;2023-07-13T03:35:22;23.50;;;4.70;;
75823;SDS011;64457;51.976;9.834;2023-07-13T03:37:50;11.57;;;5.10;;
75823;SDS011;64457;51.976;9.834;2023-07-13T03:40:20;11.33;;;4.53;;
75823;SDS011;64457;51.976;9.834;2023-07-13T03:42:48;12.17;;;4.23;;
75823;SDS011;64457;51.976;9.834;2023-07-13T03:45:16;9.13;;;4.20;;
75823;SDS011;64457;51.976;9.834;2023-07-13T03:47:45;8.90;;;4.37;;
75823;SDS011;64457;51.976;9.834;2023-07-13T03:50:12;13.70;;;5.83;;
75823;SDS011;64457;51.976;9.834;2023-07-13T03:52:40;15.23;;;4.67;;
75823;SDS011;64457;51.976;9.834;2023-07-13T03:55:08;11.77;;;4.90;;
75823;SDS011;64457;51.976;9.834;2023-07-13T03:57:38;10.10;;;4.60;;
75823;SDS011;64457;51.976;9.834;2023-07-13T04:00:06;11.17;;;5.40;;
75823;SDS011;64457;51.976;9.834;2023-07-13T04:02:36;10.27;;;5.00;;
75823;SDS011;64457;51.976;9.834;2023-07-13T04:05:08;16.10;;;5.20;;
75823;SDS011;64457;51.976;9.834;2023-07-13T04:07:36;10.37;;;5.20;;
75823;SDS011;64457;51.976;9.834;2023-07-13T04:10:02;11.53;;;4.80;;
75823;SDS011;64457;51.976;9.834;2023-07-13T04:12:32;10.50;;;4.50;;
75823;SDS011;64457;51.976;9.834;2023-07-13T04:15:01;13.83;;;4.90;;
75823;SDS011;64457;51.976;9.834;2023-07-13T04:17:29;14.80;;;5.90;;
75823;SDS011;64457;51.976;9.834;2023-07-13T04:19:58;11.70;;;5.07;;
75823;SDS011;64457;51.976;9.834;2023-07-13T04:22:26;13.17;;;5.50;;
75823;SDS011;64457;51.976;9.834;2023-07-13T04:24:54;12.73;;;4.97;;
75823;SDS011;64457;51.976;9.834;2023-07-13T04:27:20;9.97;;;4.50;;
75823;SDS011;64457;51.976;9.834;2023-07-13T04:29:48;10.63;;;4.60;;
75823;SDS011;64457;51.976;9.834;2023-07-13T04:32:19;12.40;;;5.70;;
75823;SDS011;64457;51.976;9.834;2023-07-13T04:34:47;19.27;;;6.53;;
75823;SDS011;64457;51.976;9.834;2023-07-13T04:37:17;15.80;;;4.57;;
75823;SDS011;64457;51.976;9.834;2023-07-13T04:39:45;11.03;;;4.40;;
75823;SDS011;64457;51.976;9.834;2023-07-13T04:42:12;20.83;;;7.00;;
75823;SDS011;64457;51.976;9.834;2023-07-13T04:44:41;12.40;;;6.40;;
75823;SDS011;64457;51.976;9.834;2023-07-13T04:47:09;18.40;;;7.10;;
75823;SDS011;64457;51.976;9.834;2023-07-13T04:49:39;20.83;;;7.47;;
75823;SDS011;64457;51.976;9.834;2023-07-13T04:52:07;13.93;;;6.67;;
75823;SDS011;64457;51.976;9.834;2023-07-13T04:54:35;13.83;;;6.27;;
75823;SDS011;64457;51.976;9.834;2023-07-13T04:57:04;12.20;;;5.53;;
75823;SDS011;64457;51.976;9.834;2023-07-13T04:59:33;15.00;;;5.97;;
75823;SDS011;64457;51.976;9.834;2023-07-13T05:02:01;16.40;;;5.30;;
75823;SDS011;64457;51.976;9.834;2023-07-13T05:04:28;13.87;;;5.17;;
75823;SDS011;64457;51.976;9.834;2023-07-13T05:06:58;11.53;;;4.40;;
75823;SDS011;64457;51.976;9.834;2023-07-13T05:09:26;12.63;;;3.93;;
75823;SDS011;64457;51.976;9.834;2023-07-13T05:11:54;12.10;;;4.37;;
75823;SDS011;64457;51.976;9.834;2023-07-13T05:14:22;11.77;;;4.40;;
75823;SDS011;64457;51.976;9.834;2023-07-13T05:16:50;11.20;;;3.20;;
75823;SDS011;64457;51.976;9.834;2023-07-13T05:19:17;13.10;;;3.73;;
75823;SDS011;64457;51.976;9.834;2023-07-13T05:21:45;10.80;;;3.53;;
75823;SDS011;64457;51.976;9.834;2023-07-13T05:24:15;11.10;;;3.97;;
75823;SDS011;64457;51.976;9.834;2023-07-13T05:26:43;8.90;;;3.60;;
75823;SDS011;64457;51.976;9.834;2023-07-13T05:29:11;11.53;;;3.93;;
75823;SDS011;64457;51.976;9.834;2023-07-13T05:31:39;13.60;;;3.90;;
75823;SDS011;64457;51.976;9.834;2023-07-13T05:34:07;12.10;;;3.67;;
75823;SDS011;64457;51.976;9.834;2023-07-13T05:36:35;11.40;;;3.80;;
75823;SDS011;64457;51.976;9.834;2023-07-13T05:39:03;11.00;;;3.77;;
75823;SDS011;64457;51.976;9.834;2023-07-13T05:41:33;11.07;;;3.40;;
75823;SDS011;64457;51.976;9.834;2023-07-13T05:44:00;15.23;;;3.93;;
75823;SDS011;64457;51.976;9.834;2023-07-13T05:46:28;8.40;;;3.00;;
75823;SDS011;64457;51.976;9.834;2023-07-13T05:48:57;9.40;;;3.67;;
75823;SDS011;64457;51.976;9.834;2023-07-13T05:51:25;11.40;;;4.10;;
75823;SDS011;64457;51.976;9.834;2023-07-13T05:53:53;16.77;;;4.20;;
75823;SDS011;64457;51.976;9.834;2023-07-13T05:56:21;13.23;;;3.70;;
75823;SDS011;64457;51.976;9.834;2023-07-13T05:58:52;10.03;;;3.80;;
75823;SDS011;64457;51.976;9.834;2023-07-13T06:01:19;8.83;;;3.13;;
75823;SDS011;64457;51.976;9.834;2023-07-13T06:03:48;11.70;;;3.27;;
75823;SDS011;64457;51.976;9.834;2023-07-13T06:06:17;7.60;;;2.53;;
75823;SDS011;64457;51.976;9.834;2023-07-13T06:08:45;11.03;;;3.00;;
75823;SDS011;64457;51.976;9.834;2023-07-13T06:11:14;10.23;;;2.73;;
75823;SDS011;64457;51.976;9.834;2023-07-13T06:13:45;9.73;;;2.60;;
75823;SDS011;64457;51.976;9.834;2023-07-13T06:16:15;10.10;;;2.10;;
75823;SDS011;64457;51.976;9.834;2023-07-13T06:18:59;8.27;;;2.03;;
75823;SDS011;64457;51.976;9.834;2023-07-13T06:21:26;7.00;;;1.93;;
75823;SDS011;64457;51.976;9.834;2023-07-13T06:23:54;6.63;;;1.60;;
75823;SDS011;64457;51.976;9.834;2023-07-13T06:26:21;7.13;;;1.47;;
75823;SDS011;64457;51.976;9.834;2023-07-13T06:28:48;5.70;;;1.37;;
75823;SDS011;64457;51.976;9.834;2023-07-13T06:31:15;5.93;;;1.37;;
75823;SDS011;64457;51.976;9.834;2023-07-13T06:33:43;7.23;;;1.73;;
75823;SDS011;64457;51.976;9.834;2023-07-13T06:36:15;7.37;;;1.60;;
75823;SDS011;64457;51.976;9.834;2023-07-13T06:38:42;4.13;;;1.30;;
75823;SDS011;64457;51.976;9.834;2023-07-13T06:41:09;5.80;;;1.43;;
75823;SDS011;64457;51.976;9.834;2023-07-13T06:43:37;8.90;;;1.50;;
75823;SDS011;64457;51.976;9.834;2023-07-13T06:46:04;5.93;;;1.30;;
75823;SDS011;64457;51.976;9.834;2023-07-13T06:48:31;7.40;;;1.67;;
75823;SDS011;64457;51.976;9.834;2023-07-13T06:50:59;8.33;;;1.23;;
75823;SDS011;64457;51.976;9.834;2023-07-13T06:53:27;9.03;;;1.50;;
75823;SDS011;64457;51.976;9.834;2023-07-13T06:55:55;6.93;;;1.70;;
75823;SDS011;64457;51.976;9.834;2023-07-13T06:58:22;7.00;;;1.57;;
75823;SDS011;64457;51.976;9.834;2023-07-13T07:00:50;5.90;;;1.20;;
75823;SDS011;64457;51.976;9.834;2023-07-13T07:03:18;8.37;;;1.90;;
75823;SDS011;64457;51.976;9.834;2023-07-13T07:05:46;7.90;;;1.77;;
75823;SDS011;64457;51.976;9.834;2023-07-13T07:08:13;14.50;;;1.70;;
75823;SDS011;64457;51.976;9.834;2023-07-13T07:10:42;9.03;;;1.60;;
75823;SDS011;64457;51.976;9.834;2023-07-13T07:13:10;6.37;;;1.40;;
75823;SDS011;64457;51.976;9.834;2023-07-13T07:15:38;7.80;;;1.30;;
75823;SDS011;64457;51.976;9.834;2023-07-13T07:18:05;9.23;;;1.83;;
75823;SDS011;64457;51.976;9.834;2023-07-13T07:20:32;5.60;;;1.10;;
75823;SDS011;64457;51.976;9.834;2023-07-13T07:23:00;8.23;;;2.20;;
75823;SDS011;64457;51.976;9.834;2023-07-13T07:25:27;5.50;;;1.60;;
75823;SDS011;64457;51.976;9.834;2023-07-13T07:27:58;6.83;;;1.37;;
75823;SDS011;64457;51.976;9.834;2023-07-13T07:30:26;7.80;;;1.40;;
75823;SDS011;64457;51.976;9.834;2023-07-13T07:32:53;6.70;;;1.30;;
75823;SDS011;64457;51.976;9.834;2023-07-13T07:35:20;5.33;;;1.53;;
75823;SDS011;64457;51.976;9.834;2023-07-13T07:37:48;7.57;;;1.53;;
75823;SDS011;64457;51.976;9.834;2023-07-13T07:40:15;8.67;;;1.70;;
75823;SDS011;64457;51.976;9.834;2023-07-13T07:42:42;4.70;;;1.30;;
75823;SDS011;64457;51.976;9.834;2023-07-13T07:45:11;6.60;;;1.60;;
75823;SDS011;64457;51.976;9.834;2023-07-13T07:47:39;7.57;;;1.67;;
75823;SDS011;64457;51.976;9.834;2023-07-13T07:50:06;6.30;;;1.43;;
75823;SDS011;64457;51.976;9.834;2023-07-13T07:52:34;8.03;;;1.10;;
75823;SDS011;64457;51.976;9.834;2023-07-13T07:55:02;10.63;;;1.53;;
75823;SDS011;64457;51.976;9.834;2023-07-13T07:57:31;4.83;;;1.37;;
75823;SDS011;64457;51.976;9.834;2023-07-13T07:59:59;7.10;;;1.60;;
75823;SDS011;64457;51.976;9.834;2023-07-13T08:02:28;11.60;;;1.30;;
75823;SDS011;64457;51.976;9.834;2023-07-13T08:04:55;8.53;;;1.23;;
75823;SDS011;64457;51.976;9.834;2023-07-13T08:07:23;5.10;;;1.40;;
75823;SDS011;64457;51.976;9.834;2023-07-13T08:09:51;9.83;;;1.40;;
75823;SDS011;64457;51.976;9.834;2023-07-13T08:12:19;12.03;;;1.80;;
75823;SDS011;64457;51.976;9.834;2023-07-13T08:14:49;6.00;;;1.10;;
75823;SDS011;64457;51.976;9.834;2023-07-13T08:17:19;5.00;;;1.37;;
75823;SDS011;64457;51.976;9.834;2023-07-13T08:19:47;6.03;;;1.70;;
75823;SDS011;64457;51.976;9.834;2023-07-13T08:22:15;7.60;;;1.90;;
75823;SDS011;64457;51.976;9.834;2023-07-13T08:24:42;6.33;;;1.70;;
75823;SDS011;64457;51.976;9.834;2023-07-13T08:27:10;4.80;;;0.90;;
75823;SDS011;64457;51.976;9.834;2023-07-13T08:29:37;4.50;;;1.27;;
75823;SDS011;64457;51.976;9.834;2023-07-13T08:32:06;5.83;;;1.33;;
75823;SDS011;64457;51.976;9.834;2023-07-13T08:34:36;8.30;;;1.43;;
75823;SDS011;64457;51.976;9.834;2023-07-13T08:37:05;6.10;;;1.00;;
75823;SDS011;64457;51.976;9.834;2023-07-13T08:39:33;4.90;;;1.23;;
75823;SDS011;64457;51.976;9.834;2023-07-13T08:42:00;14.30;;;1.50;;
75823;SDS011;64457;51.976;9.834;2023-07-13T08:44:41;7.50;;;1.33;;
75823;SDS011;64457;51.976;9.834;2023-07-13T08:47:18;8.60;;;1.23;;
75823;SDS011;64457;51.976;9.834;2023-07-13T08:49:49;6.00;;;1.40;;
75823;SDS011;64457;51.976;9.834;2023-07-13T08:52:21;7.60;;;1.60;;
75823;SDS011;64457;51.976;9.834;2023-07-13T08:54:58;7.10;;;1.37;;
75823;SDS011;64457;51.976;9.834;2023-07-13T08:57:32;7.80;;;1.97;;
75823;SDS011;64457;51.976;9.834;2023-07-13T09:00:01;10.73;;;2.00;;
75823;SDS011;64457;51.976;9.834;2023-07-13T09:02:34;13.10;;;2.57;;
75823;SDS011;64457;51.976;9.834;2023-07-13T09:05:12;12.13;;;1.97;;
75823;SDS011;64457;51.976;9.834;2023-07-13T09:10:43;5.73;;;1.50;;
75823;SDS011;64457;51.976;9.834;2023-07-13T09:13:16;8.27;;;1.90;;
75823;SDS011;64457;51.976;9.834;2023-07-13T09:15:53;14.53;;;2.10;;
75823;SDS011;64457;51.976;9.834;2023-07-13T09:18:21;7.80;;;2.00;;
75823;SDS011;64457;51.976;9.834;2023-07-13T09:20:54;7.63;;;1.90;;
75823;SDS011;64457;51.976;9.834;2023-07-13T09:23:27;7.83;;;1.70;;
75823;SDS011;64457;51.976;9.834;2023-07-13T09:25:58;7.70;;;1.87;;
75823;SDS011;64457;51.976;9.834;2023-07-13T09:28:33;10.93;;;2.07;;
75823;SDS011;64457;51.976;9.834;2023-07-13T09:31:06;5.40;;;1.63;;
75823;SDS011;64457;51.976;9.834;2023-07-13T09:33:39;9.53;;;2.00;;
75823;SDS011;64457;51.976;9.834;2023-07-13T09:36:16;7.73;;;1.83;;
75823;SDS011;64457;51.976;9.834;2023-07-13T09:39:03;4.90;;;1.43;;
75823;SDS011;64457;51.976;9.834;2023-07-13T09:41:39;6.73;;;2.20;;
75823;SDS011;64457;51.976;9.834;2023-07-13T09:44:16;8.87;;;2.20;;
75823;SDS011;64457;51.976;9.834;2023-07-13T09:46:45;11.70;;;2.07;;
75823;SDS011;64457;51.976;9.834;2023-07-13T09:49:18;8.80;;;1.83;;
75823;SDS011;64457;51.976;9.834;2023-07-13T09:51:50;7.27;;;1.60;;
75823;SDS011;64457;51.976;9.834;2023-07-13T09:54:28;8.77;;;1.60;;
75823;SDS011;64457;51.976;9.834;2023-07-13T09:57:01;8.40;;;1.70;;
75823;SDS011;64457;51.976;9.834;2023-07-13T09:59:39;7.10;;;1.97;;
75823;SDS011;64457;51.976;9.834;2023-07-13T10:05:02;6.20;;;1.50;;
75823;SDS011;64457;51.976;9.834;2023-07-13T10:07:35;5.73;;;1.50;;
75823;SDS011;64457;51.976;9.834;2023-07-13T10:10:13;11.33;;;2.30;;
75823;SDS011;64457;51.976;9.834;2023-07-13T10:12:43;5.43;;;1.17;;
75823;SDS011;64457;51.976;9.834;2023-07-13T10:15:13;5.60;;;1.60;;
75823;SDS011;64457;51.976;9.834;2023-07-13T10:17:43;5.90;;;1.50;;
75823;SDS011;64457;51.976;9.834;2023-07-13T10:20:11;6.60;;;1.83;;
75823;SDS011;64457;51.976;9.834;2023-07-13T10:22:41;5.07;;;1.70;;
75823;SDS011;64457;51.976;9.834;2023-07-13T10:25:19;7.67;;;2.03;;
75823;SDS011;64457;51.976;9.834;2023-07-13T10:27:49;7.70;;;1.97;;
75823;SDS011;64457;51.976;9.834;2023-07-13T10:30:20;6.17;;;1.80;;
75823;SDS011;64457;51.976;9.834;2023-07-13T10:32:53;5.13;;;1.60;;
75823;SDS011;64457;51.976;9.834;2023-07-13T10:35:24;6.00;;;1.73;;
75823;SDS011;64457;51.976;9.834;2023-07-13T10:37:55;6.93;;;1.97;;
75823;SDS011;64457;51.976;9.834;2023-07-13T10:40:34;7.57;;;1.63;;
75823;SDS011;64457;51.976;9.834;2023-07-13T10:43:08;8.57;;;1.77;;
75823;SDS011;64457;51.976;9.834;2023-07-13T10:45:41;5.90;;;2.03;;
75823;SDS011;64457;51.976;9.834;2023-07-13T10:48:12;4.70;;;1.53;;
75823;SDS011;64457;51.976;9.834;2023-07-13T10:50:40;6.63;;;1.80;;
75823;SDS011;64457;51.976;9.834;2023-07-13T10:53:18;8.40;;;1.87;;
75823;SDS011;64457;51.976;9.834;2023-07-13T10:55:56;5.00;;;1.90;;
75823;SDS011;64457;51.976;9.834;2023-07-13T10:58:34;7.63;;;1.67;;
75823;SDS011;64457;51.976;9.834;2023-07-13T11:01:07;6.13;;;1.93;;
75823;SDS011;64457;51.976;9.834;2023-07-13T11:03:38;6.30;;;1.63;;
75823;SDS011;64457;51.976;9.834;2023-07-13T11:06:17;6.43;;;1.77;;
75823;SDS011;64457;51.976;9.834;2023-07-13T11:09:17;5.70;;;1.50;;
75823;SDS011;64457;51.976;9.834;2023-07-13T11:11:59;5.80;;;1.33;;
75823;SDS011;64457;51.976;9.834;2023-07-13T11:14:31;6.57;;;1.47;;
75823;SDS011;64457;51.976;9.834;2023-07-13T11:19:56;6.67;;;1.97;;
75823;SDS011;64457;51.976;9.834;2023-07-13T11:22:48;9.27;;;1.90;;
75823;SDS011;64457;51.976;9.834;2023-07-13T11:25:21;5.30;;;1.50;;
75823;SDS011;64457;51.976;9.834;2023-07-13T11:28:05;8.07;;;1.80;;
75823;SDS011;64457;51.976;9.834;2023-07-13T11:30:43;6.10;;;1.90;;
75823;SDS011;64457;51.976;9.834;2023-07-13T11:33:16;6.50;;;1.70;;
75823;SDS011;64457;51.976;9.834;2023-07-13T11:35:51;6.60;;;1.70;;
75823;SDS011;64457;51.976;9.834;2023-07-13T11:38:31;5.70;;;1.77;;
75823;SDS011;64457;51.976;9.834;2023-07-13T11:41:03;5.40;;;1.80;;
75823;SDS011;64457;51.976;9.834;2023-07-13T11:43:38;5.77;;;1.50;;
75823;SDS011;64457;51.976;9.834;2023-07-13T11:46:13;6.10;;;1.73;;
75823;SDS011;64457;51.976;9.834;2023-07-13T11:48:42;6.40;;;1.67;;
75823;SDS011;64457;51.976;9.834;2023-07-13T11:51:14;6.63;;;1.63;;
75823;SDS011;64457;51.976;9.834;2023-07-13T11:53:48;7.40;;;1.80;;
75823;SDS011;64457;51.976;9.834;2023-07-13T11:56:18;8.20;;;1.33;;
75823;SDS011;64457;51.976;9.834;2023-07-13T11:58:49;6.33;;;1.90;;
75823;SDS011;64457;51.976;9.834;2023-07-13T12:01:23;7.60;;;1.53;;
75823;SDS011;64457;51.976;9.834;2023-07-13T12:03:57;4.80;;;1.70;;
75823;SDS011;64457;51.976;9.834;2023-07-13T12:06:27;8.93;;;1.87;;
75823;SDS011;64457;51.976;9.834;2023-07-13T12:08:56;6.90;;;1.90;;
75823;SDS011;64457;51.976;9.834;2023-07-13T12:11:26;5.70;;;1.90;;
75823;SDS011;64457;51.976;9.834;2023-07-13T12:13:55;8.20;;;1.87;;
75823;SDS011;64457;51.976;9.834;2023-07-13T12:16:25;4.77;;;1.77;;
75823;SDS011;64457;51.976;9.834;2023-07-13T12:18:58;10.30;;;2.03;;
75823;SDS011;64457;51.976;9.834;2023-07-13T12:21:29;8.93;;;2.00;;
75823;SDS011;64457;51.976;9.834;2023-07-13T12:23:59;6.57;;;1.80;;
75823;SDS011;64457;51.976;9.834;2023-07-13T12:26:29;5.00;;;1.60;;
75823;SDS011;64457;51.976;9.834;2023-07-13T12:29:00;6.13;;;1.57;;
75823;SDS011;64457;51.976;9.834;2023-07-13T12:31:33;9.30;;;1.97;;
75823;SDS011;64457;51.976;9.834;2023-07-13T12:34:06;5.37;;;1.70;;
75823;SDS011;64457;51.976;9.834;2023-07-13T12:36:37;5.63;;;1.73;;
75823;SDS011;64457;51.976;9.834;2023-07-13T12:39:13;11.43;;;1.80;;
75823;SDS011;64457;51.976;9.834;2023-07-13T12:41:43;5.67;;;1.40;;
75823;SDS011;64457;51.976;9.834;2023-07-13T12:44:13;4.73;;;1.40;;
75823;SDS011;64457;51.976;9.834;2023-07-13T12:46:53;7.80;;;1.37;;
75823;SDS011;64457;51.976;9.834;2023-07-13T12:49:25;8.77;;;1.40;;
75823;SDS011;64457;51.976;9.834;2023-07-13T12:52:01;7.30;;;1.70;;
75823;SDS011;64457;51.976;9.834;2023-07-13T12:54:38;7.13;;;1.70;;
75823;SDS011;64457;51.976;9.834;2023-07-13T12:57:08;9.90;;;1.63;;
75823;SDS011;64457;51.976;9.834;2023-07-13T12:59:44;4.50;;;1.70;;
75823;SDS011;64457;51.976;9.834;2023-07-13T13:02:20;5.30;;;1.37;;
75823;SDS011;64457;51.976;9.834;2023-07-13T13:04:54;4.53;;;1.50;;
75823;SDS011;64457;51.976;9.834;2023-07-13T13:07:23;6.00;;;1.63;;
75823;SDS011;64457;51.976;9.834;2023-07-13T13:09:51;5.87;;;1.40;;
75823;SDS011;64457;51.976;9.834;2023-07-13T13:12:20;4.30;;;1.23;;
75823;SDS011;64457;51.976;9.834;2023-07-13T13:14:50;5.13;;;1.20;;
75823;SDS011;64457;51.976;9.834;2023-07-13T13:17:19;5.80;;;1.43;;
75823;SDS011;64457;51.976;9.834;2023-07-13T13:19:52;6.97;;;1.47;;
75823;SDS011;64457;51.976;9.834;2023-07-13T13:22:19;5.30;;;1.37;;
75823;SDS011;64457;51.976;9.834;2023-07-13T13:24:47;6.23;;;1.77;;
75823;SDS011;64457;51.976;9.834;2023-07-13T13:27:15;7.53;;;2.70;;
75823;SDS011;64457;51.976;9.834;2023-07-13T13:29:43;6.80;;;1.60;;
75823;SDS011;64457;51.976;9.834;2023-07-13T13:32:13;4.90;;;1.70;;
75823;SDS011;64457;51.976;9.834;2023-07-13T13:34:41;7.93;;;1.50;;
75823;SDS011;64457;51.976;9.834;2023-07-13T13:37:11;4.90;;;1.30;;
75823;SDS011;64457;51.976;9.834;2023-07-13T13:39:46;6.43;;;1.93;;
75823;SDS011;64457;51.976;9.834;2023-07-13T13:42:14;5.97;;;1.63;;
75823;SDS011;64457;51.976;9.834;2023-07-13T13:44:41;5.70;;;1.30;;
75823;SDS011;64457;51.976;9.834;2023-07-13T13:47:25;5.33;;;1.50;;
75823;SDS011;64457;51.976;9.834;2023-07-13T13:49:58;6.60;;;1.60;;
75823;SDS011;64457;51.976;9.834;2023-07-13T13:52:25;7.33;;;1.57;;
75823;SDS011;64457;51.976;9.834;2023-07-13T13:54:52;6.00;;;1.43;;
75823;SDS011;64457;51.976;9.834;2023-07-13T13:57:21;5.27;;;1.60;;
75823;SDS011;64457;51.976;9.834;2023-07-13T13:59:50;7.67;;;1.30;;
75823;SDS011;64457;51.976;9.834;2023-07-13T14:02:26;6.37;;;1.60;;
75823;SDS011;64457;51.976;9.834;2023-07-13T14:04:59;9.00;;;1.50;;
75823;SDS011;64457;51.976;9.834;2023-07-13T14:07:30;4.37;;;1.20;;
75823;SDS011;64457;51.976;9.834;2023-07-13T14:09:58;7.20;;;1.43;;
75823;SDS011;64457;51.976;9.834;2023-07-13T14:12:26;7.17;;;1.60;;
75823;SDS011;64457;51.976;9.834;2023-07-13T14:14:55;4.27;;;1.40;;
75823;SDS011;64457;51.976;9.834;2023-07-13T14:17:25;7.70;;;1.83;;
75823;SDS011;64457;51.976;9.834;2023-07-13T14:19:54;4.80;;;1.47;;
75823;SDS011;64457;51.976;9.834;2023-07-13T14:22:23;5.20;;;1.47;;
75823;SDS011;64457;51.976;9.834;2023-07-13T14:24:51;5.80;;;1.53;;
75823;SDS011;64457;51.976;9.834;2023-07-13T14:27:20;9.30;;;1.70;;
75823;SDS011;64457;51.976;9.834;2023-07-13T14:29:47;8.70;;;1.70;;
75823;SDS011;64457;51.976;9.834;2023-07-13T14:32:15;5.30;;;1.50;;
75823;SDS011;64457;51.976;9.834;2023-07-13T14:34:43;5.63;;;1.60;;
75823;SDS011;64457;51.976;9.834;2023-07-13T14:37:12;7.23;;;1.63;;
75823;SDS011;64457;51.976;9.834;2023-07-13T14:39:42;6.00;;;1.80;;
75823;SDS011;64457;51.976;9.834;2023-07-13T14:42:11;5.23;;;1.70;;
75823;SDS011;64457;51.976;9.834;2023-07-13T14:44:38;24.47;;;2.20;;
75823;SDS011;64457;51.976;9.834;2023-07-13T14:47:06;4.60;;;1.40;;
75823;SDS011;64457;51.976;9.834;2023-07-13T14:49:35;6.30;;;1.60;;
75823;SDS011;64457;51.976;9.834;2023-07-13T14:52:09;6.53;;;1.80;;
75823;SDS011;64457;51.976;9.834;2023-07-13T14:54:40;9.37;;;2.13;;
75823;SDS011;64457;51.976;9.834;2023-07-13T14:57:09;6.23;;;1.87;;
75823;SDS011;64457;51.976;9.834;2023-07-13T14:59:38;7.03;;;2.00;;
75823;SDS011;64457;51.976;9.834;2023-07-13T15:02:13;15.53;;;2.17;;
75823;SDS011;64457;51.976;9.834;2023-07-13T15:04:43;11.50;;;2.37;;
75823;SDS011;64457;51.976;9.834;2023-07-13T15:07:12;9.73;;;2.50;;
75823;SDS011;64457;51.976;9.834;2023-07-13T15:09:41;11.03;;;3.20;;
75823;SDS011;64457;51.976;9.834;2023-07-13T15:12:08;8.20;;;2.90;;